Time;durP1;ratioP1;P1;durP2;ratioP2;P2;SDS_P1;SDS_P2;PMS_P1;PMS_P2;Temp;Humidity;BMP_temperature;BMP_pressure;BME280_temperature;BME280_humidity;BME280_pressure;Samples;Min_cycle;Max_cycle;Signal;HPM_P1;HPM_P2
2022/10/28 00:00:49;;;;;;;16.73;8.20;;;;;;;;;;5067329;28;20084;-62
2022/10/28 00:03:16;;;;;;;15.80;7.40;;;;;;;;;;5064495;28;20053;-62
2022/10/28 00:05:42;;;;;;;14.70;7.30;;;;;;;;;;5063542;28;20044;-62
2022/10/28 00:08:08;;;;;;;14.23;7.90;;;;;;;;;;5066944;28;20043;-62
2022/10/28 00:10:34;;;;;;;19.83;8.57;;;;;;;;;;5065957;28;20386;-62
2022/10/28 00:13:00;;;;;;;15.20;8.43;;;;;;;;;;5062648;28;20048;-61
2022/10/28 00:15:26;;;;;;;16.77;8.00;;;;;;;;;;5067230;28;20465;-62
2022/10/28 00:17:53;;;;;;;19.10;9.30;;;;;;;;;;5067217;28;20090;-62
2022/10/28 00:20:19;;;;;;;17.63;9.60;;;;;;;;;;5069963;28;20094;-62
2022/10/28 00:22:45;;;;;;;16.47;9.20;;;;;;;;;;5065638;28;20044;-62
2022/10/28 00:25:11;;;;;;;19.10;9.70;;;;;;;;;;5067741;28;20084;-62
2022/10/28 00:27:37;;;;;;;19.83;9.47;;;;;;;;;;5051402;28;20506;-62
2022/10/28 00:30:03;;;;;;;15.23;9.63;;;;;;;;;;5051373;28;20044;-61
2022/10/28 00:32:30;;;;;;;19.63;8.93;;;;;;;;;;5050302;28;20053;-62
2022/10/28 00:34:56;;;;;;;20.00;9.97;;;;;;;;;;5051286;28;20509;-61
2022/10/28 00:37:22;;;;;;;22.57;10.57;;;;;;;;;;5052020;28;20045;-62
2022/10/28 00:39:48;;;;;;;17.60;10.17;;;;;;;;;;5070072;28;20075;-62
2022/10/28 00:42:17;;;;;;;20.07;10.33;;;;;;;;;;5070292;28;20067;-61
2022/10/28 00:44:43;;;;;;;21.33;10.23;;;;;;;;;;5070934;28;20040;-62
2022/10/28 00:47:27;;;;;;;17.80;10.17;;;;;;;;;;5069123;28;20555;-62
2022/10/28 00:49:55;;;;;;;18.80;11.47;;;;;;;;;;5065167;28;20108;-61
2022/10/28 00:52:23;;;;;;;25.07;11.50;;;;;;;;;;5070639;28;20220;-61
2022/10/28 00:54:50;;;;;;;28.83;12.67;;;;;;;;;;5070208;28;20046;-61
2022/10/28 00:57:19;;;;;;;21.17;11.90;;;;;;;;;;5070870;28;20050;-62
2022/10/28 00:59:46;;;;;;;22.63;13.27;;;;;;;;;;5070847;28;20040;-62
2022/10/28 01:02:12;;;;;;;18.80;12.90;;;;;;;;;;5070038;28;20052;-62
2022/10/28 01:04:38;;;;;;;24.83;12.23;;;;;;;;;;5070528;28;20045;-61
2022/10/28 01:07:05;;;;;;;24.90;15.20;;;;;;;;;;5070638;28;20498;-61
2022/10/28 01:09:31;;;;;;;27.10;14.10;;;;;;;;;;5070372;28;20044;-61
2022/10/28 01:12:09;;;;;;;31.43;15.77;;;;;;;;;;5070206;28;20052;-61
2022/10/28 01:14:56;;;;;;;28.20;15.37;;;;;;;;;;5062000;28;20143;-61
2022/10/28 01:17:22;;;;;;;28.67;14.47;;;;;;;;;;5050311;28;20450;-61
2022/10/28 01:19:48;;;;;;;27.83;15.50;;;;;;;;;;5050503;28;20534;-62
2022/10/28 01:22:18;;;;;;;33.13;15.93;;;;;;;;;;5050018;28;20045;-62
2022/10/28 01:24:58;;;;;;;28.90;17.00;;;;;;;;;;5050273;28;20040;-62
2022/10/28 01:27:27;;;;;;;29.03;16.43;;;;;;;;;;5050300;28;20041;-62
2022/10/28 01:29:53;;;;;;;26.40;15.63;;;;;;;;;;5049169;28;20295;-61
2022/10/28 01:32:29;;;;;;;30.73;17.53;;;;;;;;;;5049901;28;20504;-62
2022/10/28 01:35:01;;;;;;;25.37;16.27;;;;;;;;;;5049751;28;20095;-62
2022/10/28 01:37:36;;;;;;;28.83;15.60;;;;;;;;;;5048969;28;20045;-62
2022/10/28 01:40:09;;;;;;;29.90;17.50;;;;;;;;;;5060990;28;20060;-62
2022/10/28 01:42:46;;;;;;;33.45;18.33;;;;;;;;;;5069865;28;20048;-62
2022/10/28 01:45:22;;;;;;;31.13;15.97;;;;;;;;;;5069505;28;20045;-61
2022/10/28 01:48:01;;;;;;;30.57;17.43;;;;;;;;;;5068750;28;20392;-62
2022/10/28 01:50:30;;;;;;;28.67;17.30;;;;;;;;;;5069620;28;20406;-62
2022/10/28 01:52:57;;;;;;;27.87;17.20;;;;;;;;;;5069627;28;20051;-62
2022/10/28 01:55:26;;;;;;;31.20;18.47;;;;;;;;;;5069808;28;20374;-62
2022/10/28 01:57:54;;;;;;;36.93;19.47;;;;;;;;;;5069118;28;20040;-61
2022/10/28 02:00:20;;;;;;;35.57;18.57;;;;;;;;;;5069570;28;20123;-62
2022/10/28 02:02:47;;;;;;;33.37;19.30;;;;;;;;;;5069551;28;20044;-61
2022/10/28 02:05:32;;;;;;;29.60;18.77;;;;;;;;;;5060602;28;20060;-62
2022/10/28 02:08:00;;;;;;;38.83;20.57;;;;;;;;;;5048947;28;20106;-62
2022/10/28 02:10:32;;;;;;;34.87;20.10;;;;;;;;;;5049194;28;20045;-62
2022/10/28 02:13:02;;;;;;;34.53;20.10;;;;;;;;;;5048991;28;20151;-61
2022/10/28 02:15:40;;;;;;;35.57;20.93;;;;;;;;;;5049132;28;20095;-62
2022/10/28 02:18:12;;;;;;;35.97;22.00;;;;;;;;;;5056210;28;20075;-62
2022/10/28 02:20:53;;;;;;;39.03;21.57;;;;;;;;;;5069299;28;20456;-62
2022/10/28 02:23:23;;;;;;;38.87;21.17;;;;;;;;;;5069081;28;20081;-62
2022/10/28 02:25:55;;;;;;;45.63;22.67;;;;;;;;;;5068965;28;20037;-62
2022/10/28 02:28:24;;;;;;;41.20;20.83;;;;;;;;;;5068871;28;20052;-62
2022/10/28 02:30:53;;;;;;;40.20;22.50;;;;;;;;;;5061357;28;20040;-62
2022/10/28 02:33:23;;;;;;;37.07;21.87;;;;;;;;;;5048031;28;20060;-62
2022/10/28 02:35:49;;;;;;;46.90;24.57;;;;;;;;;;5049129;28;20037;-62
2022/10/28 02:38:18;;;;;;;44.10;22.30;;;;;;;;;;5048835;28;20530;-62
2022/10/28 02:40:47;;;;;;;42.87;23.33;;;;;;;;;;5049063;28;20106;-62
2022/10/28 02:43:15;;;;;;;48.50;22.67;;;;;;;;;;5048624;28;20080;-62
2022/10/28 02:45:42;;;;;;;42.93;22.67;;;;;;;;;;5049040;28;20041;-62
2022/10/28 02:48:12;;;;;;;41.80;23.73;;;;;;;;;;5048496;28;20049;-62
2022/10/28 02:50:41;;;;;;;42.50;21.47;;;;;;;;;;5048930;28;20041;-61
2022/10/28 02:53:13;;;;;;;39.77;21.17;;;;;;;;;;5048092;28;20053;-62
2022/10/28 02:55:41;;;;;;;39.60;23.40;;;;;;;;;;5048506;28;20391;-62
2022/10/28 02:58:08;;;;;;;47.13;26.67;;;;;;;;;;5053286;28;20530;-62
2022/10/28 03:00:33;;;;;;;48.50;22.50;;;;;;;;;;5048442;28;20041;-62
2022/10/28 03:02:59;;;;;;;43.70;24.23;;;;;;;;;;5048697;28;20509;-61
2022/10/28 03:05:26;;;;;;;41.37;22.47;;;;;;;;;;5048178;28;20045;-62
2022/10/28 03:07:51;;;;;;;41.60;23.00;;;;;;;;;;5048485;28;20049;-62
2022/10/28 03:10:18;;;;;;;41.60;23.40;;;;;;;;;;5048558;28;20050;-61
2022/10/28 03:12:44;;;;;;;44.33;24.03;;;;;;;;;;5048306;28;20061;-62
2022/10/28 03:15:10;;;;;;;39.50;24.07;;;;;;;;;;5047687;28;20056;-61
2022/10/28 03:17:36;;;;;;;40.53;23.40;;;;;;;;;;5048540;28;20045;-62
2022/10/28 03:20:04;;;;;;;41.27;24.43;;;;;;;;;;5048315;28;20553;-62
2022/10/28 03:22:30;;;;;;;34.97;20.03;;;;;;;;;;5056575;28;20047;-62
2022/10/28 03:24:57;;;;;;;40.53;20.97;;;;;;;;;;5068597;28;20052;-62
2022/10/28 03:27:23;;;;;;;40.83;23.57;;;;;;;;;;5068010;28;20468;-62
2022/10/28 03:29:49;;;;;;;33.33;20.57;;;;;;;;;;5068329;28;20071;-62
2022/10/28 03:32:15;;;;;;;45.93;23.90;;;;;;;;;;5068449;28;20499;-62
2022/10/28 03:34:41;;;;;;;36.53;22.67;;;;;;;;;;5068136;28;20056;-62
2022/10/28 03:37:07;;;;;;;44.13;23.43;;;;;;;;;;5066771;28;20147;-62
2022/10/28 03:39:33;;;;;;;46.13;23.70;;;;;;;;;;5068365;28;20123;-62
2022/10/28 03:41:59;;;;;;;46.53;21.13;;;;;;;;;;5068168;28;20132;-62
2022/10/28 03:44:25;;;;;;;38.40;22.57;;;;;;;;;;5068206;28;20509;-62
2022/10/28 03:46:51;;;;;;;42.27;20.63;;;;;;;;;;5064756;28;20111;-62
2022/10/28 03:49:17;;;;;;;43.30;23.40;;;;;;;;;;5049484;28;20499;-62
2022/10/28 03:51:43;;;;;;;38.97;21.23;;;;;;;;;;5047981;28;20056;-62
2022/10/28 03:54:09;;;;;;;44.73;24.27;;;;;;;;;;5049350;28;20045;-62
2022/10/28 03:56:35;;;;;;;37.73;19.20;;;;;;;;;;5051711;28;20617;-62
2022/10/28 03:59:01;;;;;;;37.63;20.50;;;;;;;;;;5051896;28;20045;-62
2022/10/28 04:01:27;;;;;;;38.70;19.67;;;;;;;;;;5051849;28;20503;-62
2022/10/28 04:03:53;;;;;;;35.00;20.73;;;;;;;;;;5051690;28;20056;-62
2022/10/28 04:06:19;;;;;;;34.63;20.23;;;;;;;;;;5051483;28;20507;-61
2022/10/28 04:08:45;;;;;;;38.13;22.77;;;;;;;;;;5051666;28;20106;-62
2022/10/28 04:11:11;;;;;;;38.03;21.53;;;;;;;;;;5051637;28;20091;-62
2022/10/28 04:13:37;;;;;;;35.60;21.37;;;;;;;;;;5061206;28;20080;-62
2022/10/28 04:16:03;;;;;;;36.23;19.20;;;;;;;;;;5071883;28;20095;-61
2022/10/28 04:18:29;;;;;;;29.20;18.37;;;;;;;;;;5070811;28;20047;-62
2022/10/28 04:20:55;;;;;;;40.27;19.80;;;;;;;;;;5071446;28;20585;-61
2022/10/28 04:23:21;;;;;;;30.70;18.70;;;;;;;;;;5071679;28;20561;-62
2022/10/28 04:25:51;;;;;;;33.30;19.63;;;;;;;;;;5071548;28;20052;-61
2022/10/28 04:28:17;;;;;;;40.63;19.73;;;;;;;;;;5070744;28;20135;-61
2022/10/28 04:30:45;;;;;;;33.57;19.03;;;;;;;;;;5071475;28;20131;-62
2022/10/28 04:33:12;;;;;;;32.93;17.93;;;;;;;;;;5071145;28;20076;-62
2022/10/28 04:35:38;;;;;;;35.50;21.30;;;;;;;;;;5071011;28;20412;-62
2022/10/28 04:38:04;;;;;;;36.57;20.73;;;;;;;;;;5068978;28;20124;-62
2022/10/28 04:40:30;;;;;;;44.13;18.93;;;;;;;;;;5049171;28;20067;-62
2022/10/28 04:42:56;;;;;;;32.77;19.27;;;;;;;;;;5050860;28;20503;-62
2022/10/28 04:45:22;;;;;;;36.43;21.00;;;;;;;;;;5051109;28;20076;-62
2022/10/28 04:47:48;;;;;;;34.67;20.63;;;;;;;;;;5050832;28;20049;-62
2022/10/28 04:50:14;;;;;;;40.90;20.37;;;;;;;;;;5061043;28;20037;-62
2022/10/28 04:52:40;;;;;;;32.17;19.23;;;;;;;;;;5070402;28;20855;-61
2022/10/28 04:55:06;;;;;;;34.33;19.83;;;;;;;;;;5070943;28;20041;-62
2022/10/28 04:57:32;;;;;;;40.53;19.53;;;;;;;;;;5070665;28;20041;-62
2022/10/28 04:59:58;;;;;;;39.53;19.97;;;;;;;;;;5066970;28;20087;-62
2022/10/28 05:02:24;;;;;;;32.90;18.53;;;;;;;;;;5054509;28;20041;-62
2022/10/28 05:04:50;;;;;;;38.43;18.97;;;;;;;;;;5049905;28;20043;-62
2022/10/28 05:07:16;;;;;;;40.33;19.93;;;;;;;;;;5050640;28;20072;-62
2022/10/28 05:09:42;;;;;;;31.40;19.23;;;;;;;;;;5049653;28;20136;-62
2022/10/28 05:12:08;;;;;;;37.47;19.20;;;;;;;;;;5050842;28;20136;-62
2022/10/28 05:14:34;;;;;;;37.87;21.07;;;;;;;;;;5069721;28;20040;-62
2022/10/28 05:17:00;;;;;;;35.13;19.43;;;;;;;;;;5070527;28;20054;-62
2022/10/28 05:19:26;;;;;;;33.57;17.20;;;;;;;;;;5070466;28;20040;-62
2022/10/28 05:21:52;;;;;;;29.47;17.43;;;;;;;;;;5068451;28;20044;-62
2022/10/28 05:24:18;;;;;;;35.47;19.00;;;;;;;;;;5050444;28;20064;-62
2022/10/28 05:26:44;;;;;;;37.80;20.73;;;;;;;;;;5049046;28;20067;-62
2022/10/28 05:29:10;;;;;;;32.30;17.97;;;;;;;;;;5051345;28;20068;-62
2022/10/28 05:31:36;;;;;;;27.53;15.80;;;;;;;;;;5050499;28;20057;-62
2022/10/28 05:34:02;;;;;;;40.73;17.03;;;;;;;;;;5067569;28;20040;-62
2022/10/28 05:36:28;;;;;;;30.47;15.33;;;;;;;;;;5069688;28;20124;-62
2022/10/28 05:38:54;;;;;;;27.23;14.30;;;;;;;;;;5069955;28;20048;-62
2022/10/28 05:41:20;;;;;;;25.07;14.77;;;;;;;;;;5054589;28;20362;-62
2022/10/28 05:43:46;;;;;;;25.30;15.23;;;;;;;;;;5050081;28;20087;-62
2022/10/28 05:46:12;;;;;;;25.60;14.80;;;;;;;;;;5049863;28;20053;-62
2022/10/28 05:48:38;;;;;;;24.93;12.77;;;;;;;;;;5050025;28;20049;-62
2022/10/28 05:51:04;;;;;;;31.43;15.07;;;;;;;;;;5066668;28;20052;-62
2022/10/28 05:53:30;;;;;;;27.93;13.13;;;;;;;;;;5069937;28;20094;-62
2022/10/28 05:55:56;;;;;;;29.77;14.57;;;;;;;;;;5069641;28;20044;-62
2022/10/28 05:58:22;;;;;;;37.20;14.70;;;;;;;;;;5069514;28;20105;-62
2022/10/28 06:00:48;;;;;;;21.80;13.50;;;;;;;;;;5051320;28;20041;-62
2022/10/28 06:03:14;;;;;;;30.43;13.50;;;;;;;;;;5049858;28;20048;-62
2022/10/28 06:05:41;;;;;;;25.23;14.23;;;;;;;;;;5049285;28;20060;-62
2022/10/28 06:08:07;;;;;;;24.63;13.37;;;;;;;;;;5049490;28;20458;-62
2022/10/28 06:10:33;;;;;;;24.50;13.20;;;;;;;;;;5064906;28;20146;-62
2022/10/28 06:13:00;;;;;;;23.60;14.60;;;;;;;;;;5067326;28;20064;-62
2022/10/28 06:15:26;;;;;;;31.43;14.90;;;;;;;;;;5068974;28;20048;-61
2022/10/28 06:17:52;;;;;;;26.40;13.30;;;;;;;;;;5068686;28;20430;-62
2022/10/28 06:20:18;;;;;;;27.13;13.33;;;;;;;;;;5069176;28;20052;-62
2022/10/28 06:22:51;;;;;;;23.87;13.87;;;;;;;;;;5060133;28;20049;-62
2022/10/28 06:25:17;;;;;;;24.92;12.63;;;;;;;;;;5067798;28;20393;-62
2022/10/28 06:27:44;;;;;;;22.83;13.00;;;;;;;;;;5069181;28;20462;-62
2022/10/28 06:30:10;;;;;;;22.00;12.90;;;;;;;;;;5056046;28;20041;-62
2022/10/28 06:32:36;;;;;;;25.10;13.83;;;;;;;;;;5048650;28;20059;-62
2022/10/28 06:35:02;;;;;;;31.47;13.50;;;;;;;;;;5063932;28;20414;-62
2022/10/28 06:37:28;;;;;;;27.23;13.23;;;;;;;;;;5067355;28;20056;-62
2022/10/28 06:39:54;;;;;;;28.80;13.87;;;;;;;;;;5068639;28;20056;-62
2022/10/28 06:42:20;;;;;;;29.20;13.30;;;;;;;;;;5068737;28;20041;-62
2022/10/28 06:44:46;;;;;;;24.87;14.03;;;;;;;;;;5068005;28;20055;-62
2022/10/28 06:47:12;;;;;;;27.13;12.90;;;;;;;;;;5047938;28;20053;-62
2022/10/28 06:49:38;;;;;;;23.13;11.87;;;;;;;;;;5048089;28;20088;-62
2022/10/28 06:52:04;;;;;;;20.67;11.10;;;;;;;;;;5048559;28;20499;-62
2022/10/28 06:54:30;;;;;;;23.20;11.33;;;;;;;;;;5048385;28;20098;-62
2022/10/28 06:56:56;;;;;;;26.57;11.33;;;;;;;;;;5051012;28;20103;-62
2022/10/28 06:59:22;;;;;;;21.50;10.97;;;;;;;;;;5048627;28;20072;-62
2022/10/28 07:01:48;;;;;;;24.17;10.40;;;;;;;;;;5055198;28;20044;-62
2022/10/28 07:04:14;;;;;;;20.03;11.00;;;;;;;;;;5068569;28;20127;-62
2022/10/28 07:06:40;;;;;;;16.30;9.33;;;;;;;;;;5068065;28;20044;-62
2022/10/28 07:09:06;;;;;;;23.77;10.77;;;;;;;;;;5067841;28;20482;-62
2022/10/28 07:11:33;;;;;;;20.17;9.67;;;;;;;;;;5068167;28;20136;-62
2022/10/28 07:13:59;;;;;;;19.20;9.57;;;;;;;;;;5068132;28;20056;-62
2022/10/28 07:16:25;;;;;;;19.83;9.93;;;;;;;;;;5067864;28;20037;-62
2022/10/28 07:18:51;;;;;;;19.77;9.90;;;;;;;;;;5067989;28;20147;-62
2022/10/28 07:21:17;;;;;;;18.53;8.30;;;;;;;;;;5067010;28;20110;-62
2022/10/28 07:23:45;;;;;;;22.73;10.17;;;;;;;;;;5060124;28;20048;-62
2022/10/28 07:26:11;;;;;;;22.63;8.47;;;;;;;;;;5062372;28;20106;-62
2022/10/28 07:28:37;;;;;;;18.03;8.13;;;;;;;;;;5066736;28;20185;-62
2022/10/28 07:31:03;;;;;;;17.30;7.87;;;;;;;;;;5069562;28;20647;-62
2022/10/28 07:33:30;;;;;;;19.10;7.87;;;;;;;;;;5070815;28;20040;-62
2022/10/28 07:35:56;;;;;;;18.70;6.73;;;;;;;;;;5071264;28;20036;-61
2022/10/28 07:38:22;;;;;;;16.03;7.77;;;;;;;;;;5069653;28;20059;-62
2022/10/28 07:40:48;;;;;;;21.30;7.23;;;;;;;;;;5070549;28;20491;-62
2022/10/28 07:43:14;;;;;;;15.43;7.10;;;;;;;;;;5069715;28;20098;-62
2022/10/28 07:45:40;;;;;;;18.60;6.73;;;;;;;;;;5070345;28;20094;-62
2022/10/28 07:48:06;;;;;;;19.33;7.43;;;;;;;;;;5070043;28;20090;-62
2022/10/28 07:50:32;;;;;;;12.93;6.67;;;;;;;;;;5070678;28;20575;-62
2022/10/28 07:52:59;;;;;;;17.23;7.90;;;;;;;;;;5066276;28;20338;-62
2022/10/28 07:55:25;;;;;;;20.93;7.67;;;;;;;;;;5064138;28;20040;-62
2022/10/28 07:57:51;;;;;;;17.93;6.83;;;;;;;;;;5070240;28;20049;-62
2022/10/28 08:00:17;;;;;;;14.80;7.07;;;;;;;;;;5055301;28;20043;-62
2022/10/28 08:02:43;;;;;;;22.00;6.40;;;;;;;;;;5066380;28;20407;-62
2022/10/28 08:05:09;;;;;;;16.97;6.47;;;;;;;;;;5070052;28;20045;-61
2022/10/28 08:07:36;;;;;;;13.93;5.73;;;;;;;;;;5070039;28;20473;-62
2022/10/28 08:10:02;;;;;;;19.57;7.10;;;;;;;;;;5071163;28;20048;-62
2022/10/28 08:12:29;;;;;;;21.13;6.23;;;;;;;;;;5056576;28;20490;-62
2022/10/28 08:14:55;;;;;;;14.47;5.70;;;;;;;;;;5050846;28;20041;-62
2022/10/28 08:17:21;;;;;;;16.93;6.33;;;;;;;;;;5063623;28;20265;-62
2022/10/28 08:19:47;;;;;;;16.67;6.90;;;;;;;;;;5069328;28;20071;-62
2022/10/28 08:22:13;;;;;;;16.10;7.30;;;;;;;;;;5069603;28;20520;-62
2022/10/28 08:24:39;;;;;;;14.43;5.80;;;;;;;;;;5069335;28;20052;-62
2022/10/28 08:27:05;;;;;;;16.80;6.03;;;;;;;;;;5071185;28;20384;-62
2022/10/28 08:29:31;;;;;;;15.63;5.80;;;;;;;;;;5058499;28;20044;-62
2022/10/28 08:31:57;;;;;;;16.33;6.17;;;;;;;;;;5050701;28;20090;-62
2022/10/28 08:34:28;;;;;;;18.53;6.40;;;;;;;;;;5050699;28;20443;-62
2022/10/28 08:36:54;;;;;;;15.63;6.10;;;;;;;;;;5056846;28;20370;-62
2022/10/28 08:39:20;;;;;;;15.03;6.03;;;;;;;;;;5068293;28;20044;-62
2022/10/28 08:41:46;;;;;;;21.27;5.90;;;;;;;;;;5070693;28;20063;-62
2022/10/28 08:44:15;;;;;;;13.13;5.33;;;;;;;;;;5069127;28;20047;-62
2022/10/28 08:46:44;;;;;;;14.90;6.80;;;;;;;;;;5070562;28;20097;-62
2022/10/28 08:49:13;;;;;;;18.00;5.70;;;;;;;;;;5067934;28;20080;-61
2022/10/28 08:51:51;;;;;;;14.53;5.70;;;;;;;;;;5068925;28;20043;-62
2022/10/28 08:54:20;;;;;;;18.73;6.60;;;;;;;;;;5069475;28;20110;-62
2022/10/28 08:56:47;;;;;;;18.07;6.47;;;;;;;;;;5059220;28;20048;-62
2022/10/28 08:59:22;;;;;;;14.00;5.47;;;;;;;;;;5063610;28;20068;-62
2022/10/28 09:01:49;;;;;;;14.77;5.13;;;;;;;;;;5070162;28;20048;-62
2022/10/28 09:04:24;;;;;;;14.53;6.60;;;;;;;;;;5069126;28;20650;-62
2022/10/28 09:06:50;;;;;;;14.50;5.67;;;;;;;;;;5067468;28;20049;-62
2022/10/28 09:09:21;;;;;;;17.33;6.47;;;;;;;;;;5070028;28;20388;-62
2022/10/28 09:12:06;;;;;;;14.80;5.60;;;;;;;;;;5067643;28;20060;-62
2022/10/28 09:14:51;;;;;;;14.57;5.57;;;;;;;;;;5070140;28;20410;-62
2022/10/28 09:17:22;;;;;;;11.50;5.30;;;;;;;;;;5057743;28;20040;-62
2022/10/28 09:19:49;;;;;;;12.33;5.70;;;;;;;;;;5061064;28;20384;-62
2022/10/28 09:22:33;;;;;;;17.80;5.50;;;;;;;;;;5069952;28;20040;-62
2022/10/28 09:25:00;;;;;;;13.77;5.90;;;;;;;;;;5066528;28;20037;-62
2022/10/28 09:27:58;;;;;;;16.30;6.73;;;;;;;;;;5064935;28;20055;-62
2022/10/28 09:30:43;;;;;;;13.33;5.70;;;;;;;;;;5037221;28;20522;-62
2022/10/28 09:33:27;;;;;;;24.47;6.97;;;;;;;;;;5065113;28;20103;-62
2022/10/28 09:35:53;;;;;;;21.77;5.83;;;;;;;;;;5064072;28;20723;-62
2022/10/28 09:38:38;;;;;;;20.70;6.30;;;;;;;;;;5048895;28;20041;-62
2022/10/28 09:41:12;;;;;;;12.97;4.97;;;;;;;;;;5048675;28;20040;-62
2022/10/28 09:43:59;;;;;;;13.80;5.33;;;;;;;;;;5049091;28;20527;-62
2022/10/28 09:46:27;;;;;;;15.53;5.83;;;;;;;;;;5046541;28;20060;-62
2022/10/28 09:48:54;;;;;;;19.17;6.57;;;;;;;;;;5053653;28;20036;-62
2022/10/28 09:51:29;;;;;;;18.80;6.03;;;;;;;;;;5068151;28;20448;-62
2022/10/28 09:53:59;;;;;;;15.87;5.63;;;;;;;;;;5067975;28;20048;-62
2022/10/28 09:56:26;;;;;;;18.30;6.10;;;;;;;;;;5068511;28;20095;-62
2022/10/28 09:58:53;;;;;;;13.97;5.23;;;;;;;;;;5060334;28;20045;-62
2022/10/28 10:01:19;;;;;;;11.23;4.90;;;;;;;;;;5048224;28;20499;-62
2022/10/28 10:03:49;;;;;;;24.20;6.03;;;;;;;;;;5063831;28;20098;-62
2022/10/28 10:06:17;;;;;;;16.63;5.27;;;;;;;;;;5056116;28;21068;-62
2022/10/28 10:08:44;;;;;;;10.93;5.00;;;;;;;;;;5067667;28;20456;-62
2022/10/28 10:11:25;;;;;;;15.97;5.37;;;;;;;;;;5068932;28;20076;-62
2022/10/28 10:13:52;;;;;;;12.33;4.70;;;;;;;;;;5066823;28;20051;-62
2022/10/28 10:16:26;;;;;;;16.27;5.40;;;;;;;;;;5065912;28;20094;-63
2022/10/28 10:18:54;;;;;;;16.93;5.20;;;;;;;;;;5068415;28;20044;-62
2022/10/28 10:21:39;;;;;;;14.53;5.13;;;;;;;;;;5067642;28;20093;-63
2022/10/28 10:24:24;;;;;;;19.17;5.00;;;;;;;;;;5068659;28;20055;-63
2022/10/28 10:26:53;;;;;;;13.27;4.70;;;;;;;;;;5067263;28;20097;-63
2022/10/28 10:29:20;;;;;;;13.07;4.73;;;;;;;;;;5065394;28;20134;-63
2022/10/28 10:31:47;;;;;;;17.33;5.40;;;;;;;;;;5068870;28;20516;-63
2022/10/28 10:34:21;;;;;;;15.07;5.10;;;;;;;;;;5056003;28;20048;-63
2022/10/28 10:36:53;;;;;;;19.27;4.57;;;;;;;;;;5047865;28;20052;-63
2022/10/28 10:39:25;;;;;;;12.13;4.57;;;;;;;;;;5066466;28;20040;-62
2022/10/28 10:41:51;;;;;;;16.90;5.17;;;;;;;;;;5047810;28;20525;-63
2022/10/28 10:44:20;;;;;;;15.37;4.70;;;;;;;;;;5047802;28;20780;-63
2022/10/28 10:47:01;;;;;;;14.07;4.83;;;;;;;;;;5055015;28;20055;-63
2022/10/28 10:49:28;;;;;;;18.70;5.30;;;;;;;;;;5053679;28;20048;-63
2022/10/28 10:52:00;;;;;;;16.97;5.40;;;;;;;;;;5056315;28;20567;-62
2022/10/28 10:54:27;;;;;;;17.03;5.00;;;;;;;;;;5054552;28;20806;-62
2022/10/28 10:56:53;;;;;;;12.77;4.80;;;;;;;;;;5056292;28;20510;-63
2022/10/28 10:59:25;;;;;;;13.17;4.43;;;;;;;;;;5058090;28;20044;-62
2022/10/28 11:01:51;;;;;;;9.90;3.70;;;;;;;;;;5062073;28;20052;-63
2022/10/28 11:04:19;;;;;;;20.80;5.80;;;;;;;;;;5054746;28;20354;-62
2022/10/28 11:06:50;;;;;;;12.43;4.17;;;;;;;;;;5065424;28;20044;-63
2022/10/28 11:09:28;;;;;;;13.20;4.20;;;;;;;;;;5062710;28;20044;-62
2022/10/28 11:11:55;;;;;;;23.77;6.07;;;;;;;;;;5059995;28;20440;-63
2022/10/28 11:14:24;;;;;;;11.67;4.17;;;;;;;;;;5053625;28;20614;-63
2022/10/28 11:16:57;;;;;;;13.23;4.60;;;;;;;;;;5051821;28;20067;-63
2022/10/28 11:19:34;;;;;;;16.73;4.97;;;;;;;;;;5053574;28;20533;-63
2022/10/28 11:22:19;;;;;;;16.23;4.30;;;;;;;;;;5058618;28;20083;-63
2022/10/28 11:24:45;;;;;;;14.13;4.90;;;;;;;;;;5057064;28;20064;-63
2022/10/28 11:27:23;;;;;;;15.17;4.80;;;;;;;;;;5054558;28;20084;-63
2022/10/28 11:29:50;;;;;;;11.23;4.50;;;;;;;;;;5058580;28;20714;-63
2022/10/28 11:32:31;;;;;;;18.70;5.40;;;;;;;;;;5057783;28;20072;-62
2022/10/28 11:35:15;;;;;;;15.77;4.50;;;;;;;;;;5055175;28;20129;-63
2022/10/28 11:37:57;;;;;;;17.37;4.77;;;;;;;;;;5050102;28;20037;-62
2022/10/28 11:40:24;;;;;;;15.10;5.03;;;;;;;;;;5052975;28;20601;-62
2022/10/28 11:42:56;;;;;;;17.43;4.27;;;;;;;;;;5060454;28;20403;-63
2022/10/28 11:45:25;;;;;;;15.30;4.70;;;;;;;;;;5061418;28;20064;-63
2022/10/28 11:48:10;;;;;;;13.40;4.70;;;;;;;;;;5057832;28;20514;-63
2022/10/28 11:50:55;;;;;;;15.23;5.17;;;;;;;;;;5055352;28;20040;-63
2022/10/28 11:53:21;;;;;;;19.40;5.90;;;;;;;;;;5053974;28;20048;-63
2022/10/28 11:55:56;;;;;;;13.80;5.17;;;;;;;;;;5054148;28;20170;-63
2022/10/28 11:58:33;;;;;;;14.70;4.57;;;;;;;;;;5057999;28;20104;-63
2022/10/28 12:00:59;;;;;;;14.77;4.50;;;;;;;;;;5059148;28;20072;-63
2022/10/28 12:03:40;;;;;;;16.40;4.70;;;;;;;;;;5058782;28;20043;-63
2022/10/28 12:06:22;;;;;;;17.37;5.67;;;;;;;;;;5055046;28;20585;-63
2022/10/28 12:08:48;;;;;;;14.83;5.10;;;;;;;;;;5066035;28;20052;-63
2022/10/28 12:11:40;;;;;;;15.20;5.20;;;;;;;;;;5053493;28;20099;-63
2022/10/28 12:14:18;;;;;;;18.10;5.47;;;;;;;;;;5050576;28;20053;-63
2022/10/28 12:16:44;;;;;;;12.10;5.17;;;;;;;;;;5058451;28;20379;-62
2022/10/28 12:19:22;;;;;;;13.13;4.53;;;;;;;;;;5066121;28;20045;-63
2022/10/28 12:22:11;;;;;;;19.23;5.37;;;;;;;;;;5067446;28;20037;-62
2022/10/28 12:24:39;;;;;;;15.30;4.97;;;;;;;;;;5070806;28;20056;-62
2022/10/28 12:27:31;;;;;;;14.97;4.13;;;;;;;;;;5055562;28;20037;-62
2022/10/28 12:30:08;;;;;;;16.40;5.87;;;;;;;;;;5060202;28;20420;-63
2022/10/28 12:32:36;;;;;;;17.97;6.20;;;;;;;;;;5066752;28;20061;-62
2022/10/28 12:35:12;;;;;;;17.47;5.07;;;;;;;;;;5052666;28;20091;-62
2022/10/28 12:37:38;;;;;;;16.17;5.87;;;;;;;;;;5051708;28;20045;-62
2022/10/28 12:40:07;;;;;;;14.93;4.30;;;;;;;;;;5050660;28;20414;-62
2022/10/28 12:42:36;;;;;;;16.00;5.80;;;;;;;;;;5050416;28;20116;-62
2022/10/28 12:45:05;;;;;;;20.53;6.80;;;;;;;;;;5049087;28;20383;-62
2022/10/28 12:47:34;;;;;;;18.40;5.37;;;;;;;;;;5050121;28;20052;-62
2022/10/28 12:50:20;;;;;;;17.37;4.70;;;;;;;;;;5049942;28;20044;-62
2022/10/28 12:53:06;;;;;;;16.87;6.50;;;;;;;;;;5049290;28;20558;-62
2022/10/28 12:55:37;;;;;;;16.77;5.13;;;;;;;;;;5050129;28;20496;-62
2022/10/28 12:58:03;;;;;;;18.93;5.33;;;;;;;;;;5050193;28;20052;-62
2022/10/28 13:00:32;;;;;;;15.13;5.43;;;;;;;;;;5049282;28;20507;-62
2022/10/28 13:03:03;;;;;;;16.77;5.67;;;;;;;;;;5049776;28;20694;-62
2022/10/28 13:05:32;;;;;;;14.87;5.10;;;;;;;;;;5049865;28;20049;-62
2022/10/28 13:08:07;;;;;;;18.63;5.53;;;;;;;;;;5048011;28;20053;-63
2022/10/28 13:10:47;;;;;;;19.63;5.77;;;;;;;;;;5049751;28;20045;-62
2022/10/28 13:13:13;;;;;;;23.67;5.63;;;;;;;;;;5049622;28;20053;-62
2022/10/28 13:15:48;;;;;;;15.50;5.17;;;;;;;;;;5049009;28;20045;-62
2022/10/28 13:18:34;;;;;;;14.87;5.73;;;;;;;;;;5049652;28;20076;-62
2022/10/28 13:21:18;;;;;;;13.37;5.00;;;;;;;;;;5049427;28;20045;-62
2022/10/28 13:23:47;;;;;;;16.90;5.53;;;;;;;;;;5049874;28;20045;-62
2022/10/28 13:26:22;;;;;;;16.50;6.53;;;;;;;;;;5049115;28;20041;-62
2022/10/28 13:28:50;;;;;;;22.60;5.97;;;;;;;;;;5049646;28;20088;-63
2022/10/28 13:31:18;;;;;;;12.93;5.20;;;;;;;;;;5049269;28;20128;-62
2022/10/28 13:33:51;;;;;;;15.47;5.53;;;;;;;;;;5049266;28;20048;-62
2022/10/28 13:36:24;;;;;;;13.70;5.53;;;;;;;;;;5049271;28;20147;-62
2022/10/28 13:38:52;;;;;;;23.40;6.33;;;;;;;;;;5049244;28;20580;-62
2022/10/28 13:41:33;;;;;;;15.40;5.93;;;;;;;;;;5047921;28;20073;-62
2022/10/28 13:44:20;;;;;;;17.73;5.73;;;;;;;;;;5048701;28;20053;-62
2022/10/28 13:46:58;;;;;;;22.03;6.73;;;;;;;;;;5048318;28;20053;-62
2022/10/28 13:49:28;;;;;;;17.27;4.70;;;;;;;;;;5048899;28;20171;-62
2022/10/28 13:52:02;;;;;;;17.57;5.30;;;;;;;;;;5048819;28;20067;-62
2022/10/28 13:54:32;;;;;;;15.10;5.73;;;;;;;;;;5049073;28;20555;-62
2022/10/28 13:57:08;;;;;;;12.93;5.00;;;;;;;;;;5048425;28;20052;-62
2022/10/28 13:59:41;;;;;;;19.97;5.67;;;;;;;;;;5048806;28;20045;-63
2022/10/28 14:02:23;;;;;;;15.57;5.03;;;;;;;;;;5048915;28;20045;-62
2022/10/28 14:04:56;;;;;;;15.43;5.67;;;;;;;;;;5047543;28;20052;-62
2022/10/28 14:07:26;;;;;;;13.33;4.93;;;;;;;;;;5048512;28;20048;-62
2022/10/28 14:09:54;;;;;;;19.03;5.80;;;;;;;;;;5048551;28;20041;-62
2022/10/28 14:12:31;;;;;;;17.37;4.13;;;;;;;;;;5048401;28;20468;-62
2022/10/28 14:15:02;;;;;;;17.27;5.87;;;;;;;;;;5048278;28;20053;-62
2022/10/28 14:17:33;;;;;;;15.87;4.63;;;;;;;;;;5048533;28;20044;-62
2022/10/28 14:20:00;;;;;;;17.93;4.50;;;;;;;;;;5048576;28;20478;-62
2022/10/28 14:22:27;;;;;;;14.67;5.30;;;;;;;;;;5048604;28;20067;-62
2022/10/28 14:24:54;;;;;;;15.77;6.30;;;;;;;;;;5048302;28;20048;-62
2022/10/28 14:27:26;;;;;;;16.50;4.83;;;;;;;;;;5047826;28;20049;-62
2022/10/28 14:29:55;;;;;;;11.82;5.63;;;;;;;;;;5048178;28;20126;-62
2022/10/28 14:32:31;;;;;;;18.80;5.63;;;;;;;;;;5048120;28;20053;-62
2022/10/28 14:35:12;;;;;;;18.73;5.50;;;;;;;;;;5047744;28;20557;-62
2022/10/28 14:37:48;;;;;;;12.23;5.23;;;;;;;;;;5047799;28;20048;-62